createdAt,value
2018-02-11T00:00:49.861Z,82.75
2018-02-11T00:03:16.331Z,82.29
2018-02-11T00:05:42.714Z,82.31
2018-02-11T00:08:09.078Z,82.33
2018-02-11T00:10:35.540Z,82.59
2018-02-11T00:13:01.929Z,82.97
2018-02-11T00:15:28.417Z,82.98
2018-02-11T00:18:01.949Z,83.10
2018-02-11T00:20:28.346Z,82.76
2018-02-11T00:22:54.688Z,83.48
2018-02-11T00:25:21.117Z,83.61
2018-02-11T00:27:47.500Z,83.23
2018-02-11T00:30:13.901Z,82.82
2018-02-11T00:32:40.417Z,81.75
2018-02-11T00:35:06.793Z,81.47
2018-02-11T00:37:39.306Z,82.08
2018-02-11T00:40:05.697Z,82.04
2018-02-11T00:42:32.115Z,82.22
2018-02-11T00:44:58.480Z,82.47
2018-02-11T00:47:24.825Z,82.88
2018-02-11T00:49:51.232Z,83.30
2018-02-11T00:52:17.724Z,83.34
2018-02-11T00:54:44.116Z,82.83
2018-02-11T00:57:10.581Z,83.90
2018-02-11T00:59:37.004Z,82.81
2018-02-11T01:02:03.371Z,82.85
2018-02-11T01:04:29.764Z,83.37
2018-02-11T01:06:56.244Z,83.26
2018-02-11T01:09:22.700Z,83.34
2018-02-11T01:11:49.129Z,84.45
2018-02-11T01:14:15.537Z,84.79
2018-02-11T01:16:41.952Z,83.77
2018-02-11T01:19:08.736Z,83.62
2018-02-11T01:21:35.117Z,82.98
2018-02-11T01:24:01.605Z,83.19
2018-02-11T01:26:28.092Z,82.77
2018-02-11T01:28:54.467Z,82.80
2018-02-11T01:31:20.812Z,83.31
2018-02-11T01:33:47.206Z,83.83
2018-02-11T01:36:13.569Z,83.72
2018-02-11T01:38:39.940Z,84.00
2018-02-11T01:41:06.379Z,83.72
2018-02-11T01:43:32.777Z,83.90
2018-02-11T01:45:59.124Z,83.59
2018-02-11T01:48:25.507Z,84.51
2018-02-11T01:50:51.852Z,83.46
2018-02-11T01:53:18.301Z,84.28
2018-02-11T01:55:44.641Z,84.09
2018-02-11T01:58:11.029Z,84.18
2018-02-11T02:00:37.417Z,84.78
2018-02-11T02:03:03.829Z,84.47
2018-02-11T02:05:30.238Z,84.30
2018-02-11T02:07:56.608Z,83.20
2018-02-11T02:10:22.996Z,83.41
2018-02-11T02:12:49.477Z,83.35
2018-02-11T02:15:15.912Z,83.95
2018-02-11T02:17:42.372Z,83.87
2018-02-11T02:20:08.848Z,83.94
2018-02-11T02:22:35.293Z,84.82
2018-02-11T02:25:01.737Z,84.45
2018-02-11T02:27:28.160Z,84.30
2018-02-11T02:29:54.581Z,84.90
2018-02-11T02:32:20.929Z,84.06
2018-02-11T02:34:47.334Z,84.49
2018-02-11T02:37:13.732Z,85.25
2018-02-11T02:39:40.113Z,84.72
2018-02-11T02:42:06.640Z,83.98
2018-02-11T02:44:33.007Z,83.93
2018-02-11T02:46:59.405Z,83.90
2018-02-11T02:49:25.822Z,84.58
2018-02-11T02:51:52.161Z,84.69
2018-02-11T02:54:18.524Z,84.83
2018-02-11T02:56:44.948Z,85.15
2018-02-11T02:59:11.357Z,84.62
2018-02-11T03:01:37.817Z,84.57
2018-02-11T03:04:04.337Z,84.70
2018-02-11T03:06:30.745Z,83.84
2018-02-11T03:08:57.101Z,84.08
2018-02-11T03:11:23.573Z,84.50
2018-02-11T03:13:50.154Z,84.43
2018-02-11T03:16:16.524Z,83.77
2018-02-11T03:18:42.952Z,84.34
2018-02-11T03:21:09.440Z,84.57
2018-02-11T03:23:35.812Z,84.24
2018-02-11T03:26:02.461Z,84.84
2018-02-11T03:28:28.842Z,84.99
2018-02-11T03:30:55.320Z,84.99
2018-02-11T03:33:21.745Z,85.09
2018-02-11T03:35:48.162Z,85.05
2018-02-11T03:38:14.524Z,84.92
2018-02-11T03:40:40.924Z,84.48
2018-02-11T03:43:07.375Z,84.39
2018-02-11T03:45:34.033Z,83.97
2018-02-11T03:48:00.457Z,83.56
2018-02-11T03:50:26.836Z,83.46
2018-02-11T03:52:53.325Z,82.97
2018-02-11T03:55:19.697Z,82.53
2018-02-11T03:57:46.073Z,83.20
2018-02-11T04:00:12.501Z,82.42
2018-02-11T04:02:38.933Z,80.98
2018-02-11T04:05:06.038Z,81.62
2018-02-11T04:07:32.474Z,82.06
2018-02-11T04:09:58.920Z,81.59
2018-02-11T04:12:25.248Z,82.16
2018-02-11T04:14:51.712Z,83.21
2018-02-11T04:17:18.133Z,82.52
2018-02-11T04:19:44.544Z,82.64
2018-02-11T04:22:10.976Z,81.84
2018-02-11T04:24:37.359Z,82.44
2018-02-11T04:27:04.084Z,82.67
2018-02-11T04:29:30.560Z,82.69
2018-02-11T04:31:56.937Z,82.17
2018-02-11T04:34:23.350Z,82.95
2018-02-11T04:36:49.724Z,81.73
2018-02-11T04:39:16.146Z,81.34
2018-02-11T04:41:42.579Z,83.46
2018-02-11T04:44:09.056Z,82.68
2018-02-11T04:46:35.430Z,83.13
2018-02-11T04:49:01.876Z,83.81
2018-02-11T04:51:28.245Z,83.61
2018-02-11T04:53:54.656Z,82.72
2018-02-11T04:56:21.037Z,81.68
2018-02-11T04:58:47.508Z,82.06
2018-02-11T05:01:13.885Z,82.99
2018-02-11T05:03:40.285Z,82.90
2018-02-11T05:06:06.749Z,83.07
2018-02-11T05:08:33.246Z,82.79
2018-02-11T05:10:59.696Z,83.11
2018-02-11T05:13:26.036Z,82.88
2018-02-11T05:15:52.472Z,83.04
2018-02-11T05:18:18.887Z,82.84
2018-02-11T05:20:45.316Z,83.32
2018-02-11T05:23:11.765Z,83.91
2018-02-11T05:25:39.787Z,83.05
2018-02-11T05:28:06.132Z,83.54
2018-02-11T05:30:32.547Z,82.59
2018-02-11T05:32:59.013Z,82.24
2018-02-11T05:35:25.492Z,82.60
2018-02-11T05:37:51.890Z,82.97
2018-02-11T05:40:18.322Z,82.01
2018-02-11T05:42:44.744Z,82.86
2018-02-11T05:45:11.145Z,82.38
2018-02-11T05:47:37.512Z,82.33
2018-02-11T05:50:03.857Z,82.30
2018-02-11T05:52:30.303Z,82.85
2018-02-11T05:54:56.688Z,82.71
2018-02-11T05:57:23.141Z,83.28
2018-02-11T05:59:49.554Z,82.99
2018-02-11T06:02:15.929Z,82.56
2018-02-11T06:04:42.380Z,82.43
2018-02-11T06:07:09.017Z,83.56
2018-02-11T06:09:35.396Z,83.31
2018-02-11T06:12:01.811Z,82.37
2018-02-11T06:14:28.194Z,82.85
2018-02-11T06:16:54.568Z,82.40
2018-02-11T06:19:20.952Z,82.70
2018-02-11T06:21:47.365Z,82.41
2018-02-11T06:24:13.769Z,82.01
2018-02-11T06:26:42.016Z,82.77
2018-02-11T06:29:08.444Z,83.27
2018-02-11T06:31:34.909Z,83.29
2018-02-11T06:34:01.309Z,83.16
2018-02-11T06:36:27.752Z,83.54
2018-02-11T06:38:54.195Z,83.17
2018-02-11T06:41:20.880Z,83.73
2018-02-11T06:43:47.312Z,83.71
2018-02-11T06:46:13.721Z,83.85
2018-02-11T06:48:40.220Z,83.77
2018-02-11T06:51:06.632Z,83.71
2018-02-11T06:53:33.108Z,84.13
2018-02-11T06:55:59.604Z,83.80
2018-02-11T06:58:26.075Z,83.61
2018-02-11T07:00:52.490Z,83.92
2018-02-11T07:03:19.004Z,83.18
2018-02-11T07:05:45.437Z,82.96
2018-02-11T07:08:11.874Z,82.07
2018-02-11T07:10:38.519Z,82.61
2018-02-11T07:13:04.881Z,82.53
2018-02-11T07:15:31.292Z,82.86
2018-02-11T07:17:57.788Z,82.62
2018-02-11T07:20:24.292Z,82.22
2018-02-11T07:22:50.851Z,81.99
2018-02-11T07:25:17.325Z,82.09
2018-02-11T07:27:43.656Z,82.07
2018-02-11T07:30:10.001Z,82.47
2018-02-11T07:32:36.514Z,82.98
2018-02-11T07:35:02.925Z,83.72
2018-02-11T07:37:29.392Z,82.88
2018-02-11T07:39:55.936Z,82.44
2018-02-11T07:42:22.353Z,82.33
2018-02-11T07:44:48.913Z,81.85
2018-02-11T07:47:15.377Z,82.08
2018-02-11T07:49:41.884Z,81.47
2018-02-11T07:52:08.360Z,82.19
2018-02-11T07:54:34.768Z,83.24
2018-02-11T07:57:01.184Z,82.55
2018-02-11T07:59:27.737Z,83.27
2018-02-11T08:01:54.177Z,82.92
2018-02-11T08:04:20.533Z,82.69
2018-02-11T08:06:47.000Z,83.10
2018-02-11T08:09:13.389Z,82.86
2018-02-11T08:11:39.804Z,82.61
2018-02-11T08:14:06.256Z,82.37
2018-02-11T08:16:32.813Z,82.65
2018-02-11T08:18:59.248Z,82.57
2018-02-11T08:21:25.720Z,82.63
2018-02-11T08:23:52.169Z,83.05
2018-02-11T08:26:18.528Z,83.77
2018-02-11T08:28:44.944Z,83.13
2018-02-11T08:31:11.356Z,83.53
2018-02-11T08:33:37.730Z,82.77
2018-02-11T08:36:04.108Z,82.71
2018-02-11T08:38:30.541Z,82.31
2018-02-11T08:40:56.920Z,82.75
2018-02-11T08:43:23.306Z,83.52
2018-02-11T08:45:49.742Z,83.78
2018-02-11T08:48:16.137Z,83.17
2018-02-11T08:50:42.551Z,83.46
2018-02-11T08:53:08.959Z,83.01
2018-02-11T08:55:35.398Z,82.73
2018-02-11T08:58:01.784Z,82.49
2018-02-11T09:00:28.224Z,82.73
2018-02-11T09:02:54.664Z,82.43
2018-02-11T09:05:21.056Z,83.04
2018-02-11T09:07:47.533Z,82.78
2018-02-11T09:10:13.989Z,83.07
2018-02-11T09:12:40.408Z,83.21
2018-02-11T09:15:06.880Z,83.47
2018-02-11T09:17:33.280Z,83.04
2018-02-11T09:19:59.766Z,82.67
2018-02-11T09:22:26.196Z,82.12
2018-02-11T09:24:52.601Z,82.81
2018-02-11T09:27:19.078Z,83.14
2018-02-11T09:29:45.515Z,82.72
2018-02-11T09:32:11.932Z,82.84
2018-02-11T09:34:38.429Z,82.72
2018-02-11T09:37:04.808Z,83.35
2018-02-11T09:39:31.196Z,83.62
2018-02-11T09:41:57.601Z,82.86
2018-02-11T09:44:24.004Z,82.63
2018-02-11T09:46:50.469Z,82.61
2018-02-11T09:49:16.889Z,81.99
2018-02-11T09:51:43.292Z,82.42
2018-02-11T09:54:09.731Z,83.18
2018-02-11T09:56:36.125Z,82.92
2018-02-11T09:59:02.517Z,83.44
2018-02-11T10:01:28.972Z,83.88
2018-02-11T10:03:55.324Z,83.24
2018-02-11T10:06:21.778Z,83.83
2018-02-11T10:08:48.184Z,82.62
2018-02-11T10:11:14.599Z,82.61
2018-02-11T10:13:41.004Z,82.33
2018-02-11T10:16:07.420Z,82.13
2018-02-11T10:18:33.883Z,82.86
2018-02-11T10:21:00.284Z,83.55
2018-02-11T10:23:26.688Z,83.73
2018-02-11T10:25:53.061Z,83.91
2018-02-11T10:28:19.448Z,83.53
2018-02-11T10:30:45.909Z,83.25
2018-02-11T10:33:12.293Z,83.68
2018-02-11T10:35:38.809Z,83.19
2018-02-11T10:38:05.273Z,83.24
2018-02-11T10:40:31.708Z,82.82
2018-02-11T10:42:58.095Z,82.68
2018-02-11T10:45:24.518Z,82.59
2018-02-11T10:47:51.212Z,82.52
2018-02-11T10:50:17.580Z,82.70
2018-02-11T10:52:44.005Z,83.20
2018-02-11T10:55:10.375Z,83.40
2018-02-11T10:57:36.769Z,83.69
2018-02-11T11:00:03.313Z,83.37
2018-02-11T11:02:29.765Z,83.53
2018-02-11T11:04:56.133Z,83.57
2018-02-11T11:07:22.569Z,83.61
2018-02-11T11:09:48.979Z,83.75
2018-02-11T11:12:15.366Z,83.47
2018-02-11T11:14:41.897Z,83.12
2018-02-11T11:17:08.293Z,83.76
2018-02-11T11:19:34.704Z,83.23
2018-02-11T11:22:01.090Z,82.98
2018-02-11T11:24:27.496Z,83.75
2018-02-11T11:26:53.953Z,82.92
2018-02-11T11:29:20.513Z,82.98
2018-02-11T11:31:46.993Z,83.33
2018-02-11T11:34:14.530Z,83.44
2018-02-11T11:36:41.159Z,83.02
2018-02-11T11:39:08.133Z,82.40
2018-02-11T11:41:34.663Z,83.54
2018-02-11T11:44:01.056Z,83.16
2018-02-11T11:46:27.528Z,83.10
2018-02-11T11:48:53.941Z,83.11
2018-02-11T11:51:20.367Z,82.63
2018-02-11T11:53:46.720Z,82.35
2018-02-11T11:56:13.129Z,82.26
2018-02-11T11:58:39.481Z,82.59
2018-02-11T12:01:06.479Z,82.35
2018-02-11T12:03:32.935Z,83.52
2018-02-11T12:05:59.363Z,83.31
2018-02-11T12:08:25.724Z,82.93
2018-02-11T12:10:52.108Z,83.19
2018-02-11T12:13:18.503Z,82.48
2018-02-11T12:15:44.913Z,82.69
2018-02-11T12:18:11.376Z,83.04
2018-02-11T12:20:37.840Z,82.97
2018-02-11T12:23:04.331Z,83.39
2018-02-11T12:25:30.696Z,82.95
2018-02-11T12:27:57.149Z,83.02
2018-02-11T12:30:23.549Z,82.85
2018-02-11T12:32:50.061Z,82.81
2018-02-11T12:35:16.497Z,82.75
2018-02-11T12:37:42.928Z,82.42
2018-02-11T12:40:09.287Z,82.98
2018-02-11T12:42:35.676Z,82.67
2018-02-11T12:45:02.080Z,82.84
2018-02-11T12:47:28.553Z,83.51
2018-02-11T12:49:54.944Z,83.32
2018-02-11T12:52:21.337Z,83.68
2018-02-11T12:54:47.733Z,84.09
2018-02-11T12:57:14.155Z,84.30
2018-02-11T12:59:40.568Z,84.22
2018-02-11T13:02:06.997Z,83.94
2018-02-11T13:04:33.358Z,83.58
2018-02-11T13:06:59.719Z,83.52
2018-02-11T13:09:26.157Z,83.18
2018-02-11T13:11:52.544Z,82.93
2018-02-11T13:14:18.917Z,83.03
2018-02-11T13:16:45.400Z,82.89
2018-02-11T13:19:11.749Z,83.18
2018-02-11T13:21:38.156Z,83.11
2018-02-11T13:24:04.541Z,83.66
2018-02-11T13:26:30.926Z,83.50
2018-02-11T13:28:57.397Z,83.46
2018-02-11T13:31:23.949Z,82.90
2018-02-11T13:33:50.306Z,82.76
2018-02-11T13:36:16.734Z,82.94
2018-02-11T13:38:43.746Z,82.91
2018-02-11T13:41:10.196Z,82.77
2018-02-11T13:43:36.585Z,83.07
2018-02-11T13:46:03.001Z,83.81
2018-02-11T13:48:29.366Z,83.18
2018-02-11T13:50:55.813Z,83.02
2018-02-11T13:53:22.192Z,82.98
2018-02-11T13:55:48.696Z,83.03
2018-02-11T13:58:15.989Z,83.49
2018-02-11T14:00:42.357Z,83.39
2018-02-11T14:03:08.713Z,82.54
2018-02-11T14:05:35.083Z,82.65
2018-02-11T14:08:01.517Z,82.60
2018-02-11T14:10:28.189Z,82.38
2018-02-11T14:12:54.561Z,82.30
2018-02-11T14:15:20.977Z,82.19
2018-02-11T14:17:47.358Z,82.49
2018-02-11T14:20:14.378Z,82.90
2018-02-11T14:22:40.804Z,82.71
2018-02-11T14:25:07.297Z,82.54
2018-02-11T14:27:33.708Z,82.01
2018-02-11T14:30:00.095Z,81.89
2018-02-11T14:32:26.462Z,82.50
2018-02-11T14:34:52.996Z,82.59
2018-02-11T14:37:19.381Z,82.33
2018-02-11T14:39:45.761Z,82.24
2018-02-11T14:42:12.303Z,82.48
2018-02-11T14:44:38.732Z,82.49
2018-02-11T14:47:05.157Z,82.96
2018-02-11T14:49:38.666Z,82.13
2018-02-11T14:52:05.157Z,81.88
2018-02-11T14:54:31.642Z,82.24
2018-02-11T14:56:58.017Z,82.67
2018-02-11T14:59:24.419Z,83.12
2018-02-11T15:01:52.065Z,83.60
2018-02-11T15:04:18.521Z,83.33
2018-02-11T15:06:45.034Z,82.87
2018-02-11T15:09:11.401Z,82.70
2018-02-11T15:11:37.856Z,82.86
2018-02-11T15:14:04.430Z,82.82
2018-02-11T15:16:30.846Z,82.82
2018-02-11T15:18:57.245Z,82.74
2018-02-11T15:21:24.605Z,82.47
2018-02-11T15:23:50.987Z,82.40
2018-02-11T15:26:17.376Z,82.11
2018-02-11T15:28:43.854Z,82.20
2018-02-11T15:31:10.275Z,82.03
2018-02-11T15:33:36.708Z,82.58
2018-02-11T15:36:03.156Z,82.44
2018-02-11T15:38:29.556Z,82.05
2018-02-11T15:40:55.956Z,82.17
2018-02-11T15:43:22.389Z,81.89
2018-02-11T15:45:48.818Z,81.51
2018-02-11T15:48:15.173Z,81.80
2018-02-11T15:50:41.711Z,81.36
2018-02-11T15:53:08.747Z,81.69
2018-02-11T15:55:35.165Z,81.58
2018-02-11T15:58:01.622Z,81.82
2018-02-11T16:00:28.072Z,81.78
2018-02-11T16:02:54.561Z,81.60
2018-02-11T16:05:20.994Z,82.21
2018-02-11T16:07:47.374Z,82.38
2018-02-11T16:10:13.853Z,81.74
2018-02-11T16:12:40.245Z,81.37
2018-02-11T16:15:06.602Z,80.72
2018-02-11T16:17:33.031Z,81.06
2018-02-11T16:19:59.418Z,80.45
2018-02-11T16:22:25.813Z,80.22
2018-02-11T16:24:52.207Z,80.22
2018-02-11T16:27:18.688Z,80.22
2018-02-11T16:29:45.043Z,80.48
2018-02-11T16:32:11.461Z,81.01
2018-02-11T16:34:37.861Z,80.97
2018-02-11T16:37:04.289Z,81.12
2018-02-11T16:39:30.701Z,81.30
2018-02-11T16:41:57.122Z,80.55
2018-02-11T16:44:23.591Z,79.95
2018-02-11T16:46:50.046Z,79.81
2018-02-11T16:49:16.435Z,80.00
2018-02-11T16:51:42.849Z,80.33
2018-02-11T16:54:11.035Z,80.80
2018-02-11T16:56:37.412Z,81.08
2018-02-11T16:59:03.773Z,81.33
2018-02-11T17:01:30.445Z,81.35
2018-02-11T17:03:56.827Z,81.39
2018-02-11T17:06:23.225Z,81.10
2018-02-11T17:08:49.606Z,81.39
2018-02-11T17:11:15.982Z,81.62
2018-02-11T17:13:42.369Z,81.10
2018-02-11T17:16:08.776Z,80.87
2018-02-11T17:18:35.232Z,80.66
2018-02-11T17:21:01.586Z,80.75
2018-02-11T17:23:28.971Z,80.40
2018-02-11T17:25:55.365Z,80.60
2018-02-11T17:28:21.816Z,80.42
2018-02-11T17:30:48.236Z,80.75
2018-02-11T17:33:15.126Z,80.90
2018-02-11T17:35:41.652Z,81.05
2018-02-11T17:38:08.007Z,81.49
2018-02-11T17:40:34.419Z,81.53
2018-02-11T17:43:00.819Z,81.62
2018-02-11T17:45:27.208Z,81.32
2018-02-11T17:47:53.577Z,81.07
2018-02-11T17:50:20.013Z,81.13
2018-02-11T17:52:46.366Z,81.08
2018-02-11T17:55:12.764Z,81.55
2018-02-11T17:57:39.193Z,81.35
2018-02-11T18:00:05.638Z,81.66
2018-02-11T18:02:32.010Z,81.85
2018-02-11T18:04:58.590Z,81.51
2018-02-11T18:07:25.185Z,81.33
2018-02-11T18:09:51.610Z,81.36
2018-02-11T18:12:18.104Z,81.49
2018-02-11T18:14:44.568Z,81.74
2018-02-11T18:17:11.000Z,81.62
2018-02-11T18:19:37.462Z,81.63
2018-02-11T18:22:03.909Z,81.59
2018-02-11T18:24:30.307Z,81.59
2018-02-11T18:26:56.906Z,81.56
2018-02-11T18:29:23.386Z,81.34
2018-02-11T18:31:49.776Z,81.01
2018-02-11T18:34:16.225Z,81.01
2018-02-11T18:36:42.630Z,80.81
2018-02-11T18:39:08.969Z,81.39
2018-02-11T18:41:35.386Z,80.71
2018-02-11T18:44:01.850Z,80.49
2018-02-11T18:46:28.302Z,80.58
2018-02-11T18:48:54.838Z,80.60
2018-02-11T18:51:21.452Z,80.83
2018-02-11T18:53:47.833Z,80.96
2018-02-11T18:56:14.282Z,81.10
2018-02-11T18:58:40.677Z,81.30
2018-02-11T19:01:07.052Z,81.10
2018-02-11T19:03:33.932Z,81.05
2018-02-11T19:06:00.296Z,81.00
2018-02-11T19:08:26.653Z,80.94
2018-02-11T19:10:53.173Z,81.17
2018-02-11T19:13:19.567Z,81.13
2018-02-11T19:15:45.967Z,81.36
2018-02-11T19:18:12.466Z,81.06
2018-02-11T19:20:38.923Z,80.87
2018-02-11T19:23:05.366Z,81.27
2018-02-11T19:25:31.813Z,81.04
2018-02-11T19:27:58.240Z,80.96
2018-02-11T19:30:24.613Z,80.99
2018-02-11T19:32:51.034Z,80.86
2018-02-11T19:35:17.402Z,80.64
2018-02-11T19:37:43.798Z,81.03
2018-02-11T19:40:10.225Z,81.11
2018-02-11T19:42:36.603Z,81.02
2018-02-11T19:45:02.935Z,80.87
2018-02-11T19:47:29.358Z,80.84
2018-02-11T19:49:55.738Z,80.97
2018-02-11T19:52:22.202Z,80.80
2018-02-11T19:54:48.585Z,80.69
2018-02-11T19:57:14.940Z,81.04
2018-02-11T19:59:41.378Z,80.55
2018-02-11T20:02:07.802Z,80.43
2018-02-11T20:04:34.217Z,80.62
2018-02-11T20:07:01.736Z,80.21
2018-02-11T20:09:28.244Z,80.04
2018-02-11T20:11:55.612Z,80.48
2018-02-11T20:14:23.289Z,80.56
2018-02-11T20:16:49.754Z,80.68
2018-02-11T20:19:16.145Z,80.56
2018-02-11T20:21:42.646Z,80.37
2018-02-11T20:24:09.030Z,80.00
2018-02-11T20:26:35.369Z,80.77
2018-02-11T20:29:01.909Z,80.52
2018-02-11T20:31:28.284Z,80.46
2018-02-11T20:33:54.670Z,80.24
2018-02-11T20:36:21.106Z,80.72
2018-02-11T20:38:47.516Z,80.98
2018-02-11T20:41:13.917Z,80.60
2018-02-11T20:43:40.401Z,80.64
2018-02-11T20:46:06.805Z,80.54
2018-02-11T20:48:33.183Z,80.12
2018-02-11T20:50:59.609Z,80.86
2018-02-11T20:53:26.029Z,80.78
2018-02-11T20:55:52.411Z,80.51
2018-02-11T20:58:18.788Z,80.63
2018-02-11T21:00:45.166Z,81.03
2018-02-11T21:03:11.585Z,80.79
2018-02-11T21:05:37.960Z,80.39
2018-02-11T21:08:04.341Z,80.45
2018-02-11T21:10:30.860Z,80.61
2018-02-11T21:12:57.216Z,81.00
2018-02-11T21:15:23.588Z,81.06
2018-02-11T21:17:49.989Z,80.73
2018-02-11T21:20:16.429Z,80.45
2018-02-11T21:22:42.804Z,80.60
2018-02-11T21:25:10.234Z,80.67
2018-02-11T21:27:36.637Z,80.35
2018-02-11T21:30:03.073Z,80.36
2018-02-11T21:32:29.577Z,80.65
2018-02-11T21:34:56.008Z,80.49
2018-02-11T21:37:22.440Z,80.21
2018-02-11T21:39:48.924Z,80.06
2018-02-11T21:42:15.305Z,80.12
2018-02-11T21:44:41.759Z,80.81
2018-02-11T21:47:08.173Z,80.85
2018-02-11T21:49:34.524Z,80.90
2018-02-11T21:52:00.913Z,81.16
2018-02-11T21:54:27.331Z,81.11
2018-02-11T21:56:53.696Z,80.81
2018-02-11T21:59:20.080Z,80.19
2018-02-11T22:01:46.635Z,80.43
2018-02-11T22:04:13.069Z,79.85
2018-02-11T22:06:39.555Z,79.70
2018-02-11T22:09:05.940Z,79.73
2018-02-11T22:11:32.299Z,79.65
2018-02-11T22:13:58.724Z,80.26
2018-02-11T22:16:25.164Z,80.56
2018-02-11T22:18:51.743Z,81.14
2018-02-11T22:21:19.179Z,81.27
2018-02-11T22:23:45.896Z,80.98
2018-02-11T22:26:12.288Z,81.15
2018-02-11T22:28:38.664Z,80.82
2018-02-11T22:31:05.103Z,80.46
2018-02-11T22:33:31.637Z,80.36
2018-02-11T22:35:58.017Z,80.63
2018-02-11T22:38:24.573Z,80.74
2018-02-11T22:40:50.940Z,80.97
2018-02-11T22:43:17.296Z,81.15
2018-02-11T22:45:43.724Z,80.83
2018-02-11T22:48:12.511Z,80.39
2018-02-11T22:50:41.112Z,80.21
2018-02-11T22:53:07.505Z,80.20
2018-02-11T22:55:33.909Z,80.21
2018-02-11T22:58:00.309Z,80.21
2018-02-11T23:02:53.351Z,80.83
2018-02-11T23:05:19.748Z,81.01
2018-02-11T23:07:46.180Z,80.71
2018-02-11T23:10:12.537Z,80.34
2018-02-11T23:12:38.936Z,80.26
2018-02-11T23:15:05.256Z,79.98
2018-02-11T23:17:31.652Z,79.25
2018-02-11T23:19:58.116Z,79.28
2018-02-11T23:22:24.497Z,79.60
2018-02-11T23:24:50.949Z,80.10
2018-02-11T23:27:17.393Z,80.31
2018-02-11T23:29:43.774Z,80.39
2018-02-11T23:32:10.225Z,80.78
2018-02-11T23:34:36.635Z,80.93
2018-02-11T23:37:04.166Z,80.99
2018-02-11T23:39:32.728Z,80.95
2018-02-11T23:41:59.366Z,80.60
2018-02-11T23:44:26.035Z,79.98
2018-02-11T23:46:52.565Z,79.85
2018-02-11T23:49:18.948Z,79.74
2018-02-11T23:51:45.340Z,80.11
2018-02-11T23:54:11.739Z,80.53
2018-02-11T23:56:38.132Z,80.14
2018-02-11T23:59:04.491Z,80.01
